createdAt,value
2019-05-11T00:01:01.314Z,10.43
2019-05-11T00:03:31.878Z,7.63
2019-05-11T00:06:02.550Z,10.20
2019-05-11T00:08:33.107Z,8.23
2019-05-11T00:11:03.707Z,7.87
2019-05-11T00:13:34.673Z,6.67
2019-05-11T00:16:05.256Z,10.33
2019-05-11T00:18:35.833Z,8.63
2019-05-11T00:21:06.424Z,8.30
2019-05-11T00:23:36.970Z,9.57
2019-05-11T00:26:07.523Z,10.00
2019-05-11T00:28:38.104Z,11.60
2019-05-11T00:31:08.656Z,9.50
2019-05-11T00:33:39.239Z,9.30
2019-05-11T00:36:09.798Z,7.67
2019-05-11T00:38:40.371Z,7.00
2019-05-11T00:41:11.130Z,11.90
2019-05-11T00:43:41.708Z,7.67
2019-05-11T00:46:12.381Z,8.67
2019-05-11T00:48:42.943Z,9.20
2019-05-11T00:51:13.502Z,7.47
2019-05-11T00:53:44.170Z,11.20
2019-05-11T00:56:14.763Z,12.93
2019-05-11T00:58:45.344Z,12.17
2019-05-11T01:01:15.926Z,7.67
2019-05-11T01:03:46.480Z,9.87
2019-05-11T01:06:17.046Z,8.17
2019-05-11T01:08:48.413Z,11.23
2019-05-11T01:11:18.988Z,8.83
2019-05-11T01:13:49.647Z,9.43
2019-05-11T01:16:20.205Z,10.70
2019-05-11T01:18:51.293Z,7.70
2019-05-11T01:21:21.884Z,7.30
2019-05-11T01:23:52.479Z,11.83
2019-05-11T01:26:23.214Z,8.93
2019-05-11T01:28:53.781Z,9.10
2019-05-11T01:31:24.334Z,7.63
2019-05-11T01:33:54.887Z,8.23
2019-05-11T01:36:25.587Z,8.80
2019-05-11T01:38:56.131Z,7.80
2019-05-11T01:41:26.701Z,9.53
2019-05-11T01:43:57.266Z,8.23
2019-05-11T01:46:28.197Z,7.80
2019-05-11T01:48:59.817Z,8.93
2019-05-11T01:51:30.401Z,9.70
2019-05-11T01:54:00.953Z,9.53
2019-05-11T01:56:31.515Z,9.80
2019-05-11T01:59:02.091Z,11.40
2019-05-11T02:01:32.951Z,11.23
2019-05-11T02:04:03.534Z,11.73
2019-05-11T02:06:34.100Z,9.17
2019-05-11T02:09:06.906Z,7.50
2019-05-11T02:11:37.451Z,10.70
2019-05-11T02:14:08.027Z,12.20
2019-05-11T02:16:38.592Z,10.20
2019-05-11T02:19:09.146Z,8.80
2019-05-11T02:21:39.718Z,7.70
2019-05-11T02:24:10.300Z,9.33
2019-05-11T02:26:40.961Z,7.73
2019-05-11T02:29:11.546Z,9.77
2019-05-11T02:31:42.117Z,8.60
2019-05-11T02:34:12.700Z,12.17
2019-05-11T02:36:43.261Z,9.90
2019-05-11T02:39:13.812Z,11.00
2019-05-11T02:41:44.388Z,8.37
2019-05-11T02:44:15.153Z,12.77
2019-05-11T02:46:45.732Z,9.67
2019-05-11T02:49:16.308Z,9.47
2019-05-11T02:51:47.325Z,7.57
2019-05-11T02:54:18.379Z,12.47
2019-05-11T02:56:49.891Z,8.73
2019-05-11T02:59:22.308Z,8.20
2019-05-11T03:01:52.902Z,11.77
2019-05-11T03:04:23.426Z,8.40
2019-05-11T03:06:54.006Z,8.73
2019-05-11T03:09:24.575Z,9.43
2019-05-11T03:11:56.470Z,11.97
2019-05-11T03:14:27.203Z,9.00
2019-05-11T03:17:11.232Z,11.07
2019-05-11T03:19:41.989Z,9.23
2019-05-11T03:22:12.657Z,8.20
2019-05-11T03:24:43.405Z,8.53
2019-05-11T03:27:14.064Z,6.87
2019-05-11T03:29:44.743Z,6.47
2019-05-11T03:32:15.412Z,7.63
2019-05-11T03:34:45.989Z,27.00
2019-05-11T03:37:16.879Z,8.63
2019-05-11T03:39:47.445Z,8.80
2019-05-11T03:42:18.181Z,9.73
2019-05-11T03:44:48.839Z,10.60
2019-05-11T03:47:19.415Z,9.33
2019-05-11T03:49:50.004Z,9.20
2019-05-11T03:52:20.663Z,7.47
2019-05-11T03:54:51.237Z,8.20
2019-05-11T03:57:21.824Z,8.87
2019-05-11T03:59:52.486Z,9.77
2019-05-11T04:02:23.159Z,16.73
2019-05-11T04:04:54.052Z,16.07
2019-05-11T04:07:24.828Z,18.57
2019-05-11T04:09:55.522Z,19.73
2019-05-11T04:12:34.587Z,17.13
2019-05-11T04:14:58.654Z,15.50
2019-05-11T04:17:29.748Z,17.67
2019-05-11T04:20:00.324Z,21.53
2019-05-11T04:22:31.098Z,22.53
2019-05-11T04:25:01.785Z,25.30
2019-05-11T04:27:32.567Z,20.70
2019-05-11T04:30:04.652Z,20.27
2019-05-11T04:32:35.392Z,26.07
2019-05-11T04:35:06.518Z,25.10
2019-05-11T04:37:37.341Z,23.90
2019-05-11T04:40:08.856Z,30.13
2019-05-11T04:42:54.039Z,19.60
2019-05-11T04:45:12.775Z,21.43
2019-05-11T04:47:43.456Z,21.30
2019-05-11T04:50:14.259Z,22.47
2019-05-11T04:52:44.897Z,23.23
2019-05-11T04:55:15.585Z,25.53
2019-05-11T04:57:46.175Z,24.90
2019-05-11T05:00:17.321Z,21.00
2019-05-11T05:02:48.116Z,23.40
2019-05-11T05:05:19.878Z,24.10
2019-05-11T05:07:50.858Z,25.13
2019-05-11T05:10:22.290Z,24.03
2019-05-11T05:12:57.861Z,21.97
2019-05-11T05:15:25.704Z,20.43
2019-05-11T05:17:56.500Z,22.10
2019-05-11T05:20:27.132Z,21.80
2019-05-11T05:22:57.750Z,21.33
2019-05-11T05:25:28.317Z,19.57
2019-05-11T05:27:58.890Z,22.50
2019-05-11T05:30:29.468Z,20.40
2019-05-11T05:33:00.029Z,18.03
2019-05-11T05:35:30.814Z,22.47
2019-05-11T05:38:01.594Z,17.73
2019-05-11T05:40:32.195Z,23.37
2019-05-11T05:43:02.785Z,18.80
2019-05-11T05:45:33.486Z,18.93
2019-05-11T05:48:04.199Z,18.97
2019-05-11T05:50:34.751Z,16.37
2019-05-11T05:53:05.378Z,16.87
2019-05-11T05:55:35.980Z,19.43
2019-05-11T05:58:06.572Z,16.10
2019-05-11T06:00:37.214Z,17.80
2019-05-11T06:03:07.792Z,19.17
2019-05-11T06:05:38.399Z,15.20
2019-05-11T06:08:09.069Z,18.40
2019-05-11T06:10:39.725Z,14.60
2019-05-11T06:13:10.324Z,18.67
2019-05-11T06:15:40.993Z,18.73
2019-05-11T06:18:11.572Z,15.80
2019-05-11T06:20:42.369Z,17.87
2019-05-11T06:23:12.960Z,16.60
2019-05-11T06:25:43.543Z,16.77
2019-05-11T06:28:14.136Z,17.47
2019-05-11T06:30:45.500Z,19.20
2019-05-11T06:33:17.614Z,17.00
2019-05-11T06:35:48.352Z,14.90
2019-05-11T06:38:19.537Z,15.57
2019-05-11T06:40:51.504Z,17.00
2019-05-11T06:43:22.499Z,18.70
2019-05-11T06:45:53.207Z,16.30
2019-05-11T06:48:23.990Z,20.57
2019-05-11T06:50:54.654Z,17.10
2019-05-11T06:53:25.321Z,15.53
2019-05-11T06:55:56.038Z,17.00
2019-05-11T06:58:26.640Z,15.37
2019-05-11T07:00:57.948Z,17.43
2019-05-11T07:03:28.900Z,16.10
2019-05-11T07:05:59.505Z,14.57
2019-05-11T07:08:30.381Z,15.03
2019-05-11T07:11:00.977Z,16.13
2019-05-11T07:13:31.581Z,11.97
2019-05-11T07:16:02.294Z,12.63
2019-05-11T07:18:32.850Z,11.50
2019-05-11T07:21:03.411Z,26.23
2019-05-11T07:23:34.080Z,15.23
2019-05-11T07:26:05.466Z,13.07
2019-05-11T07:28:36.873Z,13.00
2019-05-11T07:31:08.433Z,11.10
2019-05-11T07:33:39.963Z,11.83
2019-05-11T07:36:10.825Z,15.27
2019-05-11T07:38:42.384Z,15.10
2019-05-11T07:41:12.969Z,10.67
2019-05-11T07:43:43.563Z,10.30
2019-05-11T07:46:14.151Z,11.20
2019-05-11T07:48:44.739Z,10.80
2019-05-11T07:51:15.332Z,10.83
2019-05-11T07:53:48.437Z,12.47
2019-05-11T07:56:18.876Z,11.10
2019-05-11T07:58:49.901Z,10.23
2019-05-11T08:01:20.471Z,10.63
2019-05-11T08:03:51.176Z,10.60
2019-05-11T08:06:21.726Z,8.57
2019-05-11T08:08:53.108Z,10.03
2019-05-11T08:11:23.733Z,11.00
2019-05-11T08:13:54.561Z,11.27
2019-05-11T08:16:25.134Z,19.10
2019-05-11T08:18:58.612Z,15.37
2019-05-11T08:21:28.555Z,11.27
2019-05-11T08:23:59.331Z,13.23
2019-05-11T08:26:30.014Z,10.30
2019-05-11T08:29:00.600Z,13.48
2019-05-11T08:31:31.399Z,9.70
2019-05-11T08:34:02.195Z,10.35
2019-05-11T08:36:32.925Z,8.88
2019-05-11T08:39:03.775Z,11.00
2019-05-11T08:41:34.528Z,8.23
2019-05-11T08:44:08.708Z,10.20
2019-05-11T08:46:38.955Z,9.88
2019-05-11T08:49:09.688Z,8.35
2019-05-11T08:51:40.312Z,8.53
2019-05-11T08:54:10.899Z,8.85
2019-05-11T08:56:41.586Z,9.33
2019-05-11T08:59:12.168Z,8.60
2019-05-11T09:01:42.940Z,8.45
2019-05-11T09:04:13.520Z,8.20
2019-05-11T09:06:44.100Z,8.43
2019-05-11T09:09:14.709Z,8.68
2019-05-11T09:11:45.265Z,9.80
2019-05-11T09:14:15.845Z,8.33
2019-05-11T09:16:48.914Z,7.92
2019-05-11T09:19:19.945Z,6.85
2019-05-11T09:21:50.514Z,6.60
2019-05-11T09:24:21.091Z,9.88
2019-05-11T09:26:51.783Z,9.80
2019-05-11T09:29:22.354Z,8.43
2019-05-11T09:31:52.925Z,8.40
2019-05-11T09:34:23.505Z,6.47
2019-05-11T09:36:54.219Z,6.62
2019-05-11T09:39:24.819Z,6.45
2019-05-11T09:41:55.544Z,5.67
2019-05-11T09:44:28.613Z,6.65
2019-05-11T09:47:02.216Z,8.00
2019-05-11T09:49:44.045Z,6.85
2019-05-11T09:52:03.332Z,5.80
2019-05-11T09:54:34.162Z,6.60
2019-05-11T09:57:04.847Z,8.88
2019-05-11T09:59:35.580Z,10.50
2019-05-11T10:02:07.974Z,11.90
2019-05-11T10:04:38.920Z,90.83
2019-05-11T10:07:09.574Z,19.85
2019-05-11T10:09:40.259Z,8.65
2019-05-11T10:12:10.813Z,7.42
2019-05-11T10:14:41.509Z,6.97
2019-05-11T10:17:12.158Z,7.50
2019-05-11T10:19:42.812Z,6.62
2019-05-11T10:22:13.407Z,10.38
2019-05-11T10:24:44.043Z,9.28
2019-05-11T10:27:14.844Z,7.07
2019-05-11T10:29:45.426Z,6.10
2019-05-11T10:32:18.207Z,4.93
2019-05-11T10:34:51.334Z,7.10
2019-05-11T10:37:22.049Z,7.87
2019-05-11T10:39:52.651Z,7.27
2019-05-11T10:42:23.355Z,12.93
2019-05-11T10:44:53.938Z,6.63
2019-05-11T10:47:24.736Z,6.87
2019-05-11T10:49:57.718Z,6.00
2019-05-11T10:52:28.595Z,6.73
2019-05-11T10:54:59.421Z,6.83
2019-05-11T10:57:30.791Z,8.13
2019-05-11T11:00:01.554Z,9.90
2019-05-11T11:02:32.200Z,7.00
2019-05-11T11:05:02.899Z,7.70
2019-05-11T11:07:33.832Z,7.77
2019-05-11T11:10:04.487Z,6.83
2019-05-11T11:12:35.147Z,7.23
2019-05-11T11:15:07.934Z,6.43
2019-05-11T11:17:38.529Z,6.13
2019-05-11T11:20:10.456Z,6.13
2019-05-11T11:22:51.517Z,8.43
2019-05-11T11:25:22.224Z,6.13
2019-05-11T11:27:52.870Z,7.10
2019-05-11T11:30:23.636Z,6.93
2019-05-11T11:32:55.173Z,6.17
2019-05-11T11:35:27.902Z,8.83
2019-05-11T11:37:58.981Z,6.33
2019-05-11T11:40:29.561Z,7.10
2019-05-11T11:43:02.805Z,6.50
2019-05-11T11:45:33.382Z,5.77
2019-05-11T11:48:03.935Z,5.00
2019-05-11T11:50:34.525Z,7.70
2019-05-11T11:53:05.126Z,6.80
2019-05-11T11:55:36.098Z,9.03
2019-05-11T11:58:08.246Z,6.43
2019-05-11T12:00:40.118Z,4.80
2019-05-11T12:03:10.686Z,5.10
2019-05-11T12:05:42.331Z,4.60
2019-05-11T12:08:12.945Z,5.70
2019-05-11T12:10:43.500Z,5.50
2019-05-11T12:13:14.067Z,5.07
2019-05-11T12:15:44.736Z,6.13
2019-05-11T12:18:15.314Z,5.87
2019-05-11T12:20:48.129Z,5.03
2019-05-11T12:23:18.771Z,4.77
2019-05-11T12:25:49.445Z,6.37
2019-05-11T12:28:20.043Z,5.27
2019-05-11T12:30:50.991Z,5.23
2019-05-11T12:33:21.638Z,4.23
2019-05-11T12:35:52.214Z,6.40
2019-05-11T12:38:24.314Z,4.60
2019-05-11T12:40:54.833Z,9.97
2019-05-11T12:43:27.550Z,9.40
2019-05-11T12:45:59.297Z,6.03
2019-05-11T12:48:30.043Z,6.20
2019-05-11T12:51:00.611Z,5.37
2019-05-11T12:53:31.167Z,7.90
2019-05-11T12:56:01.769Z,5.10
2019-05-11T12:58:32.347Z,4.93
2019-05-11T13:01:03.693Z,7.57
2019-05-11T13:03:34.358Z,5.90
2019-05-11T13:06:04.945Z,6.27
2019-05-11T13:08:38.883Z,10.07
2019-05-11T13:11:09.653Z,6.77
2019-05-11T13:13:40.288Z,8.63
2019-05-11T13:16:24.715Z,9.37
2019-05-11T13:18:57.535Z,5.90
2019-05-11T13:21:29.030Z,5.47
2019-05-11T13:23:59.917Z,8.50
2019-05-11T13:26:30.569Z,6.53
2019-05-11T13:29:02.789Z,8.30
2019-05-11T13:31:33.351Z,6.07
2019-05-11T13:34:04.727Z,6.77
2019-05-11T13:36:38.134Z,6.37
2019-05-11T13:39:09.077Z,6.20
2019-05-11T13:41:39.975Z,5.40
2019-05-11T13:44:10.549Z,6.20
2019-05-11T13:46:41.334Z,5.83
2019-05-11T13:49:11.922Z,6.37
2019-05-11T13:51:43.017Z,4.90
2019-05-11T13:54:13.731Z,4.40
2019-05-11T13:56:44.330Z,7.20
2019-05-11T13:59:14.912Z,6.53
2019-05-11T14:01:47.594Z,9.03
2019-05-11T14:04:18.327Z,7.60
2019-05-11T14:06:50.300Z,8.00
2019-05-11T14:09:21.942Z,8.33
2019-05-11T14:11:53.918Z,7.70
2019-05-11T14:14:25.631Z,7.33
2019-05-11T14:16:58.648Z,7.03
2019-05-11T14:19:29.170Z,6.10
2019-05-11T14:22:00.153Z,7.13
2019-05-11T14:24:30.748Z,5.20
2019-05-11T14:27:01.524Z,7.17
2019-05-11T14:29:32.089Z,5.77
2019-05-11T14:32:02.669Z,6.73
2019-05-11T14:34:33.217Z,5.67
2019-05-11T14:37:04.871Z,8.57
2019-05-11T14:39:35.486Z,7.17
2019-05-11T14:42:07.695Z,5.23
2019-05-11T14:44:38.432Z,9.87
2019-05-11T14:47:09.131Z,8.53
2019-05-11T14:49:39.737Z,9.77
2019-05-11T14:52:10.329Z,5.80
2019-05-11T14:54:42.396Z,8.07
2019-05-11T14:57:12.944Z,6.70
2019-05-11T14:59:44.628Z,4.33
2019-05-11T15:02:33.045Z,4.87
2019-05-11T15:05:04.325Z,8.47
2019-05-11T15:07:34.900Z,10.03
2019-05-11T15:10:08.088Z,10.83
2019-05-11T15:12:38.801Z,28.60
2019-05-11T15:15:13.120Z,13.70
2019-05-11T15:17:43.704Z,15.63
2019-05-11T15:20:14.721Z,10.63
2019-05-11T15:22:45.322Z,10.20
2019-05-11T15:25:19.387Z,13.43
2019-05-11T15:27:50.519Z,8.87
2019-05-11T15:30:21.672Z,10.57
2019-05-11T15:32:52.282Z,9.50
2019-05-11T15:35:23.695Z,9.27
2019-05-11T15:37:54.314Z,7.67
2019-05-11T15:40:24.944Z,7.97
2019-05-11T15:42:55.660Z,13.20
2019-05-11T15:45:27.766Z,7.60
2019-05-11T15:47:59.069Z,8.00
2019-05-11T15:50:32.757Z,8.60
2019-05-11T15:53:03.377Z,11.63
2019-05-11T15:55:34.065Z,8.70
2019-05-11T15:58:05.393Z,11.50
2019-05-11T16:00:39.749Z,9.77
2019-05-11T16:03:08.404Z,11.17
2019-05-11T16:05:39.130Z,10.13
2019-05-11T16:08:09.718Z,10.97
2019-05-11T16:10:40.326Z,10.50
2019-05-11T16:13:12.470Z,13.43
2019-05-11T16:15:43.437Z,10.33
2019-05-11T16:18:13.988Z,11.43
2019-05-11T16:20:44.571Z,10.33
2019-05-11T16:23:17.533Z,10.67
2019-05-11T16:25:48.939Z,8.73
2019-05-11T16:28:19.677Z,12.00
2019-05-11T16:30:50.266Z,10.63
2019-05-11T16:33:20.827Z,9.80
2019-05-11T16:35:51.401Z,13.20
2019-05-11T16:38:21.974Z,10.60
2019-05-11T16:40:52.658Z,13.83
2019-05-11T16:43:23.315Z,12.90
2019-05-11T16:45:53.971Z,12.33
2019-05-11T16:48:24.547Z,8.90
2019-05-11T16:50:57.944Z,8.70
2019-05-11T16:53:30.217Z,9.70
2019-05-11T16:56:01.068Z,8.97
2019-05-11T16:58:31.680Z,9.20
2019-05-11T17:01:02.226Z,12.83
2019-05-11T17:03:32.794Z,8.90
2019-05-11T17:06:03.375Z,10.83
2019-05-11T17:08:33.965Z,12.73
2019-05-11T17:11:04.639Z,12.90
2019-05-11T17:13:37.770Z,10.27
2019-05-11T17:16:08.685Z,10.67
2019-05-11T17:18:40.773Z,11.13
2019-05-11T17:21:11.397Z,16.07
2019-05-11T17:23:42.031Z,24.33
2019-05-11T17:26:12.718Z,14.70
2019-05-11T17:28:43.418Z,12.37
2019-05-11T17:31:14.025Z,12.10
2019-05-11T17:33:44.626Z,11.33
2019-05-11T17:36:15.207Z,10.67
2019-05-11T17:38:47.953Z,13.20
2019-05-11T17:41:18.768Z,16.97
2019-05-11T17:43:49.607Z,23.53
2019-05-11T17:46:20.290Z,12.97
2019-05-11T17:48:51.000Z,16.20
2019-05-11T17:51:25.053Z,12.00
2019-05-11T17:53:54.993Z,17.33
2019-05-11T17:56:27.890Z,20.40
2019-05-11T17:58:58.459Z,17.33
2019-05-11T18:01:29.675Z,18.37
2019-05-11T18:04:00.654Z,13.70
2019-05-11T18:06:31.244Z,14.37
2019-05-11T18:09:01.978Z,14.83
2019-05-11T18:11:34.040Z,20.70
2019-05-11T18:14:05.409Z,19.10
2019-05-11T18:16:36.254Z,18.70
2019-05-11T18:19:08.484Z,30.40
2019-05-11T18:21:41.466Z,29.23
2019-05-11T18:24:12.050Z,22.13
2019-05-11T18:26:43.248Z,26.53
2019-05-11T18:29:14.226Z,26.20
2019-05-11T18:31:45.528Z,23.90
2019-05-11T18:34:17.842Z,28.47
2019-05-11T18:36:49.296Z,28.27
2019-05-11T18:39:20.266Z,26.27
2019-05-11T18:41:50.850Z,30.93
2019-05-11T18:44:21.725Z,34.17
2019-05-11T18:46:52.460Z,53.70
2019-05-11T18:49:23.978Z,53.40
2019-05-11T18:51:55.087Z,38.70
2019-05-11T18:54:27.738Z,28.17
2019-05-11T18:56:59.661Z,34.37
2019-05-11T18:59:37.370Z,32.83
2019-05-11T19:02:09.705Z,27.10
2019-05-11T19:04:40.527Z,29.37
2019-05-11T19:07:16.255Z,33.53
2019-05-11T19:09:44.161Z,39.83
2019-05-11T19:12:18.771Z,74.33
2019-05-11T19:14:49.646Z,58.43
2019-05-11T19:17:20.807Z,61.93
2019-05-11T19:19:51.596Z,53.60
2019-05-11T19:22:23.972Z,47.70
2019-05-11T19:24:58.244Z,41.33
2019-05-11T19:27:29.584Z,31.47
2019-05-11T19:30:03.118Z,29.40
2019-05-11T19:32:38.050Z,32.30
2019-05-11T19:35:10.988Z,22.60
2019-05-11T19:37:42.567Z,33.80
2019-05-11T19:40:14.797Z,23.47
2019-05-11T19:42:55.043Z,19.73
2019-05-11T19:45:30.135Z,21.77
2019-05-11T19:48:01.046Z,23.47
2019-05-11T19:50:32.135Z,41.53
2019-05-11T19:53:03.569Z,42.63
2019-05-11T19:55:34.672Z,40.90
2019-05-11T19:58:05.449Z,32.00
2019-05-11T20:00:37.994Z,27.53
2019-05-11T20:03:10.918Z,30.27
2019-05-11T20:05:41.497Z,23.73
2019-05-11T20:10:58.222Z,18.63
2019-05-11T20:13:28.624Z,25.97
2019-05-11T20:15:59.225Z,31.80
2019-05-11T20:18:29.964Z,44.87
2019-05-11T20:21:14.277Z,32.10
2019-05-11T20:23:33.251Z,39.30
2019-05-11T20:26:03.924Z,27.47
2019-05-11T20:28:34.592Z,27.17
2019-05-11T20:31:07.874Z,54.30
2019-05-11T20:33:38.574Z,28.43
2019-05-11T20:36:10.726Z,61.80
2019-05-11T20:38:41.334Z,56.30
2019-05-11T20:41:11.973Z,67.53
2019-05-11T20:43:42.616Z,29.87
2019-05-11T20:46:18.403Z,86.60
2019-05-11T20:48:52.455Z,106.07
2019-05-11T20:51:34.214Z,60.20
2019-05-11T20:53:57.875Z,80.17
2019-05-11T20:56:28.864Z,84.00
2019-05-11T20:58:59.953Z,68.47
2019-05-11T21:01:30.823Z,61.47
2019-05-11T21:04:01.518Z,35.80
2019-05-11T21:06:32.379Z,40.90
2019-05-11T21:09:06.563Z,34.83
2019-05-11T21:11:38.640Z,31.40
2019-05-11T21:14:09.296Z,34.27
2019-05-11T21:16:39.873Z,43.27
2019-05-11T21:19:10.452Z,47.00
2019-05-11T21:21:49.974Z,39.27
2019-05-11T21:24:14.872Z,39.03
2019-05-11T21:26:47.790Z,36.67
2019-05-11T21:29:18.765Z,54.23
2019-05-11T21:31:49.800Z,63.57
2019-05-11T21:34:20.506Z,60.67
2019-05-11T21:36:51.366Z,74.63
2019-05-11T21:39:21.957Z,104.57
2019-05-11T21:41:52.641Z,135.20
2019-05-11T21:44:23.255Z,67.40
2019-05-11T21:46:54.916Z,95.17
2019-05-11T21:49:25.507Z,172.63
2019-05-11T21:52:03.942Z,150.53
2019-05-11T21:54:30.322Z,162.63
2019-05-11T21:57:00.938Z,200.30
2019-05-11T21:59:31.798Z,149.40
2019-05-11T22:02:02.481Z,250.43
2019-05-11T22:04:33.065Z,75.40
2019-05-11T22:07:03.698Z,50.87
2019-05-11T22:09:38.286Z,36.10
2019-05-11T22:12:10.806Z,32.33
2019-05-11T22:14:40.810Z,47.40
2019-05-11T22:17:11.427Z,36.43
2019-05-11T22:19:43.227Z,28.47
2019-05-11T22:22:22.523Z,21.97
2019-05-11T22:24:47.685Z,18.17
2019-05-11T22:27:18.572Z,28.13
2019-05-11T22:29:49.415Z,35.63
2019-05-11T22:32:20.108Z,67.80
2019-05-11T22:34:50.684Z,103.30
2019-05-11T22:37:21.283Z,79.30
2019-05-11T22:39:51.991Z,41.93
2019-05-11T22:42:22.757Z,22.23
2019-05-11T22:44:53.411Z,23.47
2019-05-11T22:47:24.298Z,24.57
2019-05-11T22:49:55.141Z,17.93
2019-05-11T22:52:35.854Z,19.80
2019-05-11T22:54:59.026Z,17.90
2019-05-11T22:57:30.614Z,16.27
2019-05-11T23:00:01.682Z,18.20
2019-05-11T23:02:34.045Z,10.80
2019-05-11T23:05:08.577Z,10.90
2019-05-11T23:07:41.534Z,11.00
2019-05-11T23:10:12.318Z,8.37
2019-05-11T23:12:43.029Z,8.37
2019-05-11T23:15:14.747Z,9.60
2019-05-11T23:17:45.525Z,8.60
2019-05-11T23:20:18.271Z,7.47
2019-05-11T23:22:57.330Z,9.07
2019-05-11T23:25:22.199Z,10.80
2019-05-11T23:27:52.951Z,9.27
2019-05-11T23:30:23.748Z,7.10
2019-05-11T23:32:55.525Z,6.33
2019-05-11T23:35:28.404Z,9.37
2019-05-11T23:37:58.641Z,6.23
2019-05-11T23:40:29.207Z,7.70
2019-05-11T23:42:59.875Z,5.13
2019-05-11T23:45:30.453Z,5.77
2019-05-11T23:48:01.040Z,7.50
2019-05-11T23:50:31.609Z,8.50
2019-05-11T23:53:06.649Z,6.77
2019-05-11T23:55:34.483Z,6.70
2019-05-11T23:58:05.044Z,8.63
